createdAt,value
2019-03-28T00:00:49.712Z,12.13
2019-03-28T00:03:18.809Z,11.45
2019-03-28T00:05:47.698Z,11.93
2019-03-28T00:08:16.489Z,11.28
2019-03-28T00:10:45.378Z,12.03
2019-03-28T00:13:14.165Z,10.98
2019-03-28T00:15:43.058Z,11.48
2019-03-28T00:18:11.949Z,11.30
2019-03-28T00:20:40.735Z,11.60
2019-03-28T00:23:23.453Z,13.35
2019-03-28T00:28:20.619Z,11.65
2019-03-28T00:40:52.714Z,11.30
2019-03-28T00:59:33.630Z,13.88
2019-03-28T01:02:02.518Z,14.45
2019-03-28T01:04:31.409Z,13.62
2019-03-28T01:07:00.402Z,14.03
2019-03-28T01:09:29.397Z,13.68
2019-03-28T01:11:58.202Z,14.63
2019-03-28T01:14:26.970Z,14.63
2019-03-28T01:16:55.842Z,14.75
2019-03-28T01:19:24.858Z,14.00
2019-03-28T01:21:53.639Z,14.58
2019-03-28T01:24:22.530Z,14.40
2019-03-28T01:26:57.253Z,14.73
2019-03-28T01:29:21.745Z,15.23
2019-03-28T01:31:50.638Z,13.83
2019-03-28T01:34:19.615Z,14.53
2019-03-28T01:36:48.420Z,13.80
2019-03-28T01:39:17.106Z,15.70
2019-03-28T01:41:52.039Z,15.72
2019-03-28T01:44:20.930Z,15.78
2019-03-28T01:46:50.266Z,17.20
2019-03-28T01:49:19.210Z,17.27
2019-03-28T01:51:48.213Z,17.85
2019-03-28T01:54:16.998Z,17.12
2019-03-28T01:56:45.787Z,18.40
2019-03-28T01:59:14.581Z,16.48
2019-03-28T02:01:43.455Z,17.23
2019-03-28T02:04:12.256Z,17.92
2019-03-28T02:06:41.145Z,18.12
2019-03-28T02:09:09.832Z,18.98
2019-03-28T02:11:38.523Z,19.17
2019-03-28T02:14:07.305Z,20.00
2019-03-28T02:16:36.199Z,20.12
2019-03-28T02:19:05.085Z,19.00
2019-03-28T02:21:33.977Z,19.55
2019-03-28T02:24:02.763Z,20.62
2019-03-28T02:26:31.554Z,20.85
2019-03-28T02:29:00.444Z,19.73
2019-03-28T02:31:29.232Z,20.10
2019-03-28T02:33:58.019Z,21.75
2019-03-28T02:36:26.807Z,21.87
2019-03-28T02:38:55.727Z,22.80
2019-03-28T02:41:24.485Z,20.43
2019-03-28T02:43:53.375Z,21.55
2019-03-28T02:46:22.766Z,20.17
2019-03-28T02:48:51.880Z,21.52
2019-03-28T02:51:20.772Z,21.90
2019-03-28T02:53:49.657Z,21.40
2019-03-28T02:56:18.546Z,20.92
2019-03-28T02:58:47.540Z,21.80
2019-03-28T03:01:16.434Z,22.67
2019-03-28T03:03:45.321Z,21.45
2019-03-28T03:06:14.212Z,20.55
2019-03-28T03:08:43.099Z,22.82
2019-03-28T03:11:11.991Z,22.00
2019-03-28T03:13:40.789Z,22.37
2019-03-28T03:16:09.673Z,20.52
2019-03-28T03:18:38.565Z,20.82
2019-03-28T03:21:07.453Z,21.50
2019-03-28T03:23:36.445Z,21.17
2019-03-28T03:26:05.336Z,22.00
2019-03-28T03:28:34.217Z,20.23
2019-03-28T03:31:03.138Z,23.05
2019-03-28T03:33:32.111Z,20.43
2019-03-28T03:36:01.100Z,20.75
2019-03-28T03:38:29.994Z,21.55
2019-03-28T03:40:58.885Z,21.25
2019-03-28T03:43:27.742Z,22.75
2019-03-28T03:45:56.661Z,22.82
2019-03-28T03:48:25.659Z,22.58
2019-03-28T03:50:54.555Z,22.55
2019-03-28T03:53:23.441Z,22.25
2019-03-28T03:55:52.324Z,23.30
2019-03-28T03:58:21.222Z,24.47
2019-03-28T04:00:50.083Z,21.77
2019-03-28T04:03:19.103Z,23.57
2019-03-28T04:05:47.994Z,24.07
2019-03-28T04:08:16.987Z,21.60
2019-03-28T04:10:45.978Z,23.77
2019-03-28T04:13:14.784Z,22.15
2019-03-28T04:15:43.667Z,22.60
2019-03-28T04:18:13.765Z,22.82
2019-03-28T04:20:43.296Z,21.85
2019-03-28T04:23:12.173Z,24.00
2019-03-28T04:25:40.972Z,23.30
2019-03-28T04:28:09.968Z,24.15
2019-03-28T04:30:38.886Z,24.18
2019-03-28T04:33:07.836Z,25.12
2019-03-28T04:35:36.714Z,23.52
2019-03-28T04:38:05.617Z,23.00
2019-03-28T04:40:34.766Z,22.58
2019-03-28T04:43:03.815Z,23.45
2019-03-28T04:45:32.607Z,24.47
2019-03-28T04:48:01.586Z,23.75
2019-03-28T04:50:30.582Z,24.50
2019-03-28T04:52:59.474Z,24.47
2019-03-28T04:55:28.262Z,24.20
2019-03-28T04:57:57.149Z,24.82
2019-03-28T05:00:26.041Z,25.48
2019-03-28T05:02:54.933Z,25.95
2019-03-28T05:05:23.822Z,25.35
2019-03-28T05:07:52.821Z,23.80
2019-03-28T05:10:21.808Z,27.05
2019-03-28T05:12:51.449Z,25.12
2019-03-28T05:15:20.645Z,25.08
2019-03-28T05:17:49.607Z,25.52
2019-03-28T05:20:18.734Z,26.77
2019-03-28T05:22:48.476Z,25.30
2019-03-28T05:25:17.633Z,31.55
2019-03-28T05:27:46.500Z,28.65
2019-03-28T05:30:18.259Z,27.65
2019-03-28T05:32:47.253Z,31.27
2019-03-28T05:35:16.141Z,27.37
2019-03-28T05:37:45.034Z,27.02
2019-03-28T05:40:14.123Z,26.65
2019-03-28T05:42:43.015Z,26.87
2019-03-28T05:45:12.419Z,27.95
2019-03-28T05:47:41.412Z,28.87
2019-03-28T05:50:10.406Z,28.98
2019-03-28T05:52:39.298Z,31.70
2019-03-28T05:55:08.188Z,30.02
2019-03-28T05:57:37.080Z,27.50
2019-03-28T06:00:07.712Z,28.40
2019-03-28T06:02:36.707Z,30.45
2019-03-28T06:05:07.119Z,28.52
2019-03-28T06:07:36.450Z,33.55
2019-03-28T06:10:07.814Z,28.87
2019-03-28T06:12:36.769Z,27.90
2019-03-28T06:15:07.390Z,27.32
2019-03-28T06:17:36.282Z,27.02
2019-03-28T06:20:07.221Z,27.10
2019-03-28T06:22:37.214Z,28.95
2019-03-28T06:25:06.363Z,28.25
2019-03-28T06:27:35.345Z,28.35
2019-03-28T06:30:05.915Z,28.15
2019-03-28T06:32:42.936Z,28.55
2019-03-28T06:35:06.951Z,27.87
2019-03-28T06:37:35.821Z,28.50
2019-03-28T06:40:05.616Z,30.10
2019-03-28T06:42:34.923Z,28.00
2019-03-28T06:45:04.816Z,27.45
2019-03-28T06:47:34.268Z,28.98
2019-03-28T06:50:06.225Z,27.48
2019-03-28T06:52:35.605Z,28.32
2019-03-28T06:55:09.810Z,27.80
2019-03-28T06:57:39.946Z,27.58
2019-03-28T07:00:13.057Z,28.10
2019-03-28T07:02:42.063Z,27.93
2019-03-28T07:05:12.126Z,28.00
2019-03-28T07:07:40.943Z,28.60
2019-03-28T07:10:10.994Z,30.37
2019-03-28T07:12:40.049Z,27.13
2019-03-28T07:15:09.762Z,28.80
2019-03-28T07:17:38.744Z,27.42
2019-03-28T07:20:09.727Z,28.77
2019-03-28T07:22:38.576Z,28.92
2019-03-28T07:25:07.979Z,27.85
2019-03-28T07:27:37.306Z,30.05
2019-03-28T07:30:08.612Z,27.20
2019-03-28T07:32:37.413Z,29.52
2019-03-28T07:35:07.844Z,28.77
2019-03-28T07:37:36.932Z,28.15
2019-03-28T07:40:07.265Z,27.42
2019-03-28T07:42:36.457Z,27.65
2019-03-28T07:45:09.450Z,28.70
2019-03-28T07:47:38.651Z,27.62
2019-03-28T07:50:09.784Z,27.75
2019-03-28T07:52:38.592Z,28.40
2019-03-28T07:55:09.051Z,28.90
2019-03-28T07:57:37.997Z,28.73
2019-03-28T08:00:09.955Z,28.95
2019-03-28T08:02:39.058Z,28.35
2019-03-28T08:05:10.162Z,27.37
2019-03-28T08:07:44.845Z,26.90
2019-03-28T08:10:09.717Z,26.40
2019-03-28T08:12:38.526Z,31.12
2019-03-28T08:15:10.766Z,28.55
2019-03-28T08:17:39.610Z,29.48
2019-03-28T08:20:10.807Z,27.17
2019-03-28T08:22:39.598Z,27.80
2019-03-28T08:25:11.722Z,26.73
2019-03-28T08:27:40.040Z,27.50
2019-03-28T08:30:18.279Z,25.40
2019-03-28T08:32:41.490Z,26.00
2019-03-28T08:35:10.733Z,26.40
2019-03-28T08:37:40.257Z,26.55
2019-03-28T08:40:10.394Z,27.67
2019-03-28T08:42:39.218Z,26.20
2019-03-28T08:45:08.983Z,30.25
2019-03-28T08:47:38.042Z,26.62
2019-03-28T08:50:08.039Z,25.37
2019-03-28T08:52:36.934Z,23.65
2019-03-28T08:55:09.947Z,25.35
2019-03-28T08:57:38.197Z,25.55
2019-03-28T09:00:09.641Z,26.30
2019-03-28T09:02:38.437Z,27.73
2019-03-28T09:05:07.529Z,26.20
2019-03-28T09:07:36.421Z,25.88
2019-03-28T09:10:08.984Z,28.57
2019-03-28T09:12:37.884Z,26.90
2019-03-28T09:15:07.466Z,27.75
2019-03-28T09:17:36.371Z,27.20
2019-03-28T09:20:07.013Z,27.17
2019-03-28T09:22:38.848Z,26.42
2019-03-28T09:25:07.903Z,27.05
2019-03-28T09:27:36.859Z,21.65
2019-03-28T09:30:08.212Z,18.80
2019-03-28T09:32:37.315Z,21.23
2019-03-28T09:35:08.057Z,21.25
2019-03-28T09:37:37.093Z,19.77
2019-03-28T09:40:07.143Z,20.00
2019-03-28T09:42:36.040Z,20.60
2019-03-28T09:45:07.143Z,18.98
2019-03-28T09:47:36.006Z,20.15
2019-03-28T09:50:06.887Z,22.82
2019-03-28T09:52:35.906Z,22.65
2019-03-28T09:55:06.656Z,21.27
2019-03-28T09:57:35.631Z,18.37
2019-03-28T10:00:10.450Z,19.00
2019-03-28T10:02:39.451Z,19.30
2019-03-28T10:05:08.549Z,19.27
2019-03-28T10:07:38.578Z,18.67
2019-03-28T10:10:09.275Z,19.62
2019-03-28T10:12:38.394Z,18.37
2019-03-28T10:15:08.013Z,19.73
2019-03-28T10:17:36.996Z,17.95
2019-03-28T10:20:07.767Z,17.45
2019-03-28T10:22:36.620Z,17.23
2019-03-28T10:25:07.051Z,17.23
2019-03-28T10:27:35.835Z,17.98
2019-03-28T10:30:08.616Z,14.98
2019-03-28T10:32:37.510Z,14.60
2019-03-28T10:35:07.053Z,14.78
2019-03-28T10:37:36.321Z,15.95
2019-03-28T10:40:08.377Z,15.55
2019-03-28T10:42:37.266Z,13.53
2019-03-28T10:45:08.183Z,9.93
2019-03-28T10:47:37.099Z,8.28
2019-03-28T10:50:06.796Z,9.13
2019-03-28T10:52:35.901Z,8.88
2019-03-28T10:55:05.797Z,9.90
2019-03-28T10:57:34.923Z,11.65
2019-03-28T11:00:05.465Z,9.88
2019-03-28T11:02:34.332Z,13.10
2019-03-28T11:05:03.539Z,14.23
2019-03-28T11:07:32.627Z,12.30
2019-03-28T11:10:01.517Z,12.68
2019-03-28T11:12:30.505Z,12.15
2019-03-28T11:14:59.398Z,13.50
2019-03-28T11:17:28.378Z,13.93
2019-03-28T11:19:57.484Z,12.13
2019-03-28T11:22:26.394Z,12.03
2019-03-28T11:24:55.371Z,12.00
2019-03-28T11:27:24.366Z,12.58
2019-03-28T11:29:53.457Z,11.45
2019-03-28T11:32:22.353Z,12.98
2019-03-28T11:34:51.342Z,12.47
2019-03-28T11:37:26.381Z,12.00
2019-03-28T11:39:50.768Z,15.50
2019-03-28T11:42:20.077Z,12.82
2019-03-28T11:44:49.169Z,14.47
2019-03-28T11:47:18.033Z,12.98
2019-03-28T11:49:47.106Z,12.65
2019-03-28T11:52:16.036Z,11.30
2019-03-28T11:54:44.829Z,12.25
2019-03-28T11:57:15.978Z,10.93
2019-03-28T11:59:45.367Z,14.65
2019-03-28T12:02:20.090Z,12.82
2019-03-28T12:04:44.775Z,25.12
2019-03-28T12:07:13.991Z,24.40
2019-03-28T12:09:42.976Z,12.95
2019-03-28T12:12:11.979Z,13.98
2019-03-28T12:14:40.965Z,13.40
2019-03-28T12:17:09.855Z,14.55
2019-03-28T12:19:38.959Z,15.28
2019-03-28T12:22:07.946Z,14.45
2019-03-28T12:24:36.833Z,18.60
2019-03-28T12:27:05.723Z,21.12
2019-03-28T12:29:35.889Z,16.85
2019-03-28T12:32:14.006Z,14.73
2019-03-28T12:34:35.664Z,15.15
2019-03-28T12:37:04.771Z,15.10
2019-03-28T12:39:33.966Z,15.35
2019-03-28T12:42:02.951Z,15.88
2019-03-28T12:44:32.056Z,14.93
2019-03-28T12:47:00.943Z,15.05
2019-03-28T12:49:29.842Z,18.35
2019-03-28T12:51:58.715Z,15.72
2019-03-28T12:54:28.519Z,14.63
2019-03-28T12:56:58.236Z,14.68
2019-03-28T12:59:27.340Z,16.80
2019-03-28T13:01:56.430Z,15.32
2019-03-28T13:04:25.333Z,15.20
2019-03-28T13:06:54.204Z,16.75
2019-03-28T13:09:23.121Z,17.67
2019-03-28T13:11:51.981Z,19.42
2019-03-28T13:14:21.486Z,17.52
2019-03-28T13:16:50.612Z,14.78
2019-03-28T13:19:19.596Z,15.03
2019-03-28T13:21:48.609Z,13.98
2019-03-28T13:24:17.579Z,13.90
2019-03-28T13:26:46.575Z,14.50
2019-03-28T13:29:15.564Z,13.88
2019-03-28T13:31:44.620Z,12.00
2019-03-28T13:34:13.552Z,13.10
2019-03-28T13:36:42.565Z,12.95
2019-03-28T13:39:11.541Z,21.60
2019-03-28T13:41:40.427Z,16.75
2019-03-28T13:44:12.096Z,16.15
2019-03-28T13:46:39.950Z,14.35
2019-03-28T13:49:08.922Z,13.93
2019-03-28T13:51:37.946Z,12.58
2019-03-28T13:54:06.730Z,14.85
2019-03-28T13:56:38.425Z,15.78
2019-03-28T13:59:06.454Z,19.23
2019-03-28T14:01:35.565Z,15.32
2019-03-28T14:04:04.536Z,14.45
2019-03-28T14:06:33.425Z,15.43
2019-03-28T14:09:02.521Z,17.82
2019-03-28T14:11:31.519Z,13.53
2019-03-28T14:14:00.305Z,13.98
2019-03-28T14:16:29.186Z,14.78
2019-03-28T14:18:58.087Z,13.72
2019-03-28T14:21:26.979Z,14.98
2019-03-28T14:23:55.869Z,16.62
2019-03-28T14:26:24.860Z,13.38
2019-03-28T14:28:53.651Z,15.20
2019-03-28T14:31:22.743Z,13.68
2019-03-28T14:33:51.537Z,13.85
2019-03-28T14:36:20.422Z,15.28
2019-03-28T14:38:49.301Z,14.93
2019-03-28T14:41:18.308Z,15.08
2019-03-28T14:43:47.194Z,16.40
2019-03-28T14:46:16.084Z,16.77
2019-03-28T14:48:46.516Z,17.12
2019-03-28T14:51:15.686Z,15.83
2019-03-28T14:53:45.009Z,16.35
2019-03-28T14:56:14.006Z,15.80
2019-03-28T14:58:43.980Z,15.93
2019-03-28T15:01:13.118Z,16.35
2019-03-28T15:03:42.110Z,12.88
2019-03-28T15:06:10.999Z,13.28
2019-03-28T15:08:39.789Z,13.25
2019-03-28T15:11:08.880Z,12.37
2019-03-28T15:13:40.320Z,12.15
2019-03-28T15:16:08.302Z,15.23
2019-03-28T15:18:37.091Z,40.67
2019-03-28T15:21:06.085Z,35.33
2019-03-28T15:23:35.078Z,14.18
2019-03-28T15:26:04.063Z,11.60
2019-03-28T15:28:33.161Z,13.85
2019-03-28T15:31:02.366Z,12.53
2019-03-28T15:33:39.209Z,14.30
2019-03-28T15:36:02.472Z,14.10
2019-03-28T15:38:31.649Z,14.98
2019-03-28T15:41:00.586Z,14.73
2019-03-28T15:43:29.373Z,15.68
2019-03-28T15:45:59.757Z,16.45
2019-03-28T15:48:29.003Z,15.35
2019-03-28T15:50:57.998Z,13.45
2019-03-28T15:53:27.195Z,17.42
2019-03-28T15:55:56.291Z,14.73
2019-03-28T15:58:25.388Z,15.72
2019-03-28T16:00:54.527Z,14.90
2019-03-28T16:03:23.573Z,16.48
2019-03-28T16:05:58.157Z,16.75
2019-03-28T16:08:22.993Z,17.10
2019-03-28T16:10:51.914Z,17.17
2019-03-28T16:13:22.738Z,17.05
2019-03-28T16:15:51.539Z,16.25
2019-03-28T16:18:20.501Z,15.95
2019-03-28T16:20:50.029Z,17.80
2019-03-28T16:23:20.009Z,17.60
2019-03-28T16:25:48.909Z,16.97
2019-03-28T16:28:17.799Z,17.77
2019-03-28T16:30:46.797Z,18.37
2019-03-28T16:33:15.794Z,20.32
2019-03-28T16:35:44.663Z,19.85
2019-03-28T16:38:13.466Z,19.12
2019-03-28T16:40:42.362Z,22.13
2019-03-28T16:43:11.254Z,20.62
2019-03-28T16:45:40.239Z,18.12
2019-03-28T16:48:09.130Z,16.95
2019-03-28T16:50:38.127Z,17.50
2019-03-28T16:53:07.119Z,17.02
2019-03-28T16:55:36.019Z,15.55
2019-03-28T16:58:05.107Z,16.52
2019-03-28T17:00:37.899Z,15.53
2019-03-28T17:03:06.863Z,16.80
2019-03-28T17:05:35.664Z,15.55
2019-03-28T17:08:05.158Z,15.80
2019-03-28T17:10:47.994Z,13.40
2019-03-28T17:13:17.462Z,14.18
2019-03-28T17:15:51.699Z,13.60
2019-03-28T17:18:20.686Z,15.18
2019-03-28T17:20:49.697Z,13.43
2019-03-28T17:23:19.149Z,15.20
2019-03-28T17:25:48.190Z,13.53
2019-03-28T17:28:17.192Z,13.15
2019-03-28T17:30:46.074Z,13.22
2019-03-28T17:33:17.627Z,12.98
2019-03-28T17:35:45.801Z,14.60
2019-03-28T17:38:14.883Z,13.08
2019-03-28T17:40:43.888Z,13.68
2019-03-28T17:43:12.881Z,13.48
2019-03-28T17:45:41.775Z,12.95
2019-03-28T17:48:11.503Z,13.98
2019-03-28T17:50:40.374Z,15.35
2019-03-28T17:53:09.775Z,13.65
2019-03-28T17:55:38.570Z,13.80
2019-03-28T17:58:07.455Z,15.28
2019-03-28T18:00:36.355Z,14.18
2019-03-28T18:03:09.554Z,14.90
2019-03-28T18:05:42.576Z,13.80
2019-03-28T18:08:12.438Z,14.60
2019-03-28T18:10:42.997Z,14.58
2019-03-28T18:13:12.782Z,14.05
2019-03-28T18:15:46.221Z,15.20
2019-03-28T18:18:16.194Z,15.65
2019-03-28T18:20:45.906Z,14.53
2019-03-28T18:23:17.864Z,16.32
2019-03-28T18:25:49.704Z,15.85
2019-03-28T18:28:22.543Z,17.25
2019-03-28T18:30:53.490Z,18.82
2019-03-28T18:33:23.535Z,17.95
2019-03-28T18:35:53.070Z,15.28
2019-03-28T18:38:23.055Z,16.60
2019-03-28T18:40:53.465Z,15.75
2019-03-28T18:43:24.315Z,15.43
2019-03-28T18:45:53.140Z,15.10
2019-03-28T18:48:30.860Z,15.05
2019-03-28T18:50:56.474Z,16.73
2019-03-28T18:53:29.137Z,16.32
2019-03-28T18:56:00.650Z,15.18
2019-03-28T18:58:32.943Z,16.40
2019-03-28T19:01:02.820Z,15.75
2019-03-28T19:03:33.479Z,16.05
2019-03-28T19:06:04.228Z,15.45
2019-03-28T19:08:36.603Z,17.02
2019-03-28T19:11:09.123Z,16.82
2019-03-28T19:16:12.091Z,19.15
2019-03-28T19:18:44.454Z,15.72
2019-03-28T19:21:16.581Z,15.93
2019-03-28T19:23:45.823Z,15.40
2019-03-28T19:26:15.292Z,16.10
2019-03-28T19:28:46.621Z,16.30
2019-03-28T19:31:19.677Z,14.25
2019-03-28T19:33:52.291Z,15.53
2019-03-28T19:36:22.452Z,15.65
2019-03-28T19:38:52.065Z,15.23
2019-03-28T19:41:21.158Z,15.55
2019-03-28T19:43:50.357Z,16.62
2019-03-28T19:46:19.185Z,20.85
2019-03-28T19:48:48.138Z,18.82
2019-03-28T19:51:17.038Z,17.80
2019-03-28T19:53:45.927Z,18.27
2019-03-28T19:56:14.919Z,16.77
2019-03-28T19:58:44.111Z,18.12
2019-03-28T20:01:13.212Z,17.67
2019-03-28T20:03:42.202Z,20.55
2019-03-28T20:06:21.672Z,16.82
2019-03-28T20:08:45.003Z,17.12
2019-03-28T20:11:14.894Z,18.45
2019-03-28T20:13:47.916Z,17.48
2019-03-28T20:16:21.295Z,18.75
2019-03-28T20:18:50.810Z,17.77
2019-03-28T20:21:19.895Z,17.70
2019-03-28T20:23:58.400Z,18.02
2019-03-28T20:26:27.828Z,18.85
2019-03-28T20:28:56.704Z,19.42
2019-03-28T20:31:25.601Z,20.10
2019-03-28T20:33:54.690Z,23.12
2019-03-28T20:36:37.029Z,24.43
2019-03-28T20:39:03.723Z,20.70
2019-03-28T20:41:25.048Z,18.05
2019-03-28T20:43:54.267Z,21.45
2019-03-28T20:46:23.347Z,19.23
2019-03-28T20:48:53.266Z,21.02
2019-03-28T20:51:24.795Z,22.07
2019-03-28T20:54:20.726Z,24.20
2019-03-28T20:57:18.291Z,20.75
2019-03-28T20:59:55.961Z,23.30
2019-03-28T21:02:43.210Z,20.05
2019-03-28T21:05:48.888Z,22.90
2019-03-28T21:08:24.881Z,21.20
2019-03-28T21:10:53.814Z,20.40
2019-03-28T21:13:24.012Z,20.92
2019-03-28T21:16:35.504Z,21.00
2019-03-28T21:19:03.222Z,20.55
2019-03-28T21:24:23.094Z,20.40
2019-03-28T21:27:10.377Z,20.95
2019-03-28T21:29:53.232Z,21.00
2019-03-28T21:32:54.417Z,26.77
2019-03-28T21:35:22.974Z,20.43
2019-03-28T21:37:52.258Z,20.55
2019-03-28T21:40:23.574Z,20.72
2019-03-28T21:42:52.626Z,19.77
2019-03-28T21:45:21.513Z,23.47
2019-03-28T21:47:50.914Z,21.82
2019-03-28T21:50:20.383Z,21.02
2019-03-28T21:52:49.952Z,23.05
2019-03-28T21:55:19.203Z,23.95
2019-03-28T21:57:50.006Z,22.07
2019-03-28T22:00:19.882Z,20.80
2019-03-28T22:02:50.941Z,20.12
2019-03-28T22:05:21.007Z,20.75
2019-03-28T22:07:53.373Z,20.77
2019-03-28T22:10:22.792Z,21.33
2019-03-28T22:12:51.987Z,22.10
2019-03-28T22:15:20.776Z,22.62
2019-03-28T22:17:49.560Z,21.45
2019-03-28T22:20:18.448Z,21.45
2019-03-28T22:22:47.544Z,20.70
2019-03-28T22:25:16.546Z,22.90
2019-03-28T22:27:47.358Z,22.27
2019-03-28T22:30:16.105Z,22.52
2019-03-28T22:32:44.945Z,22.55
2019-03-28T22:35:13.844Z,24.37
2019-03-28T22:37:42.734Z,21.97
2019-03-28T22:40:12.051Z,23.40
2019-03-28T22:42:41.230Z,23.42
2019-03-28T22:45:12.578Z,24.43
2019-03-28T22:47:41.681Z,24.65
2019-03-28T22:50:10.666Z,23.83
2019-03-28T22:52:41.196Z,26.68
2019-03-28T22:55:10.575Z,23.83
2019-03-28T22:57:39.696Z,23.32
2019-03-28T23:00:10.838Z,24.65
2019-03-28T23:02:39.911Z,27.13
2019-03-28T23:05:10.254Z,26.62
2019-03-28T23:07:39.144Z,26.50
2019-03-28T23:10:09.309Z,25.50
2019-03-28T23:12:38.258Z,26.33
2019-03-28T23:15:08.527Z,26.35
2019-03-28T23:17:37.472Z,27.00
2019-03-28T23:20:09.844Z,27.02
2019-03-28T23:22:38.633Z,28.55
2019-03-28T23:25:08.131Z,28.27
2019-03-28T23:27:37.131Z,28.77
2019-03-28T23:30:09.099Z,31.12
2019-03-28T23:32:38.178Z,30.68
2019-03-28T23:35:08.197Z,29.23
2019-03-28T23:37:37.198Z,30.40
2019-03-28T23:40:07.379Z,30.30
2019-03-28T23:42:36.312Z,31.07
2019-03-28T23:45:07.251Z,30.45
2019-03-28T23:47:36.038Z,31.23
2019-03-28T23:50:07.130Z,32.48
2019-03-28T23:52:36.377Z,30.55
2019-03-28T23:55:08.341Z,32.25
2019-03-28T23:57:37.241Z,32.20
